sensor_id;sensor_type;location;lat;lon;timestamp;P1;durP1;ratioP1;P2;durP2;ratioP2
80425;SDS011;69766;51.476;5.704;2023-08-01T00:00:00;4.75;;;2.55;;
80425;SDS011;69766;51.476;5.704;2023-08-01T00:02:28;4.72;;;2.97;;
80425;SDS011;69766;51.476;5.704;2023-08-01T00:04:54;4.70;;;3.05;;
80425;SDS011;69766;51.476;5.704;2023-08-01T00:07:20;6.30;;;3.50;;
80425;SDS011;69766;51.476;5.704;2023-08-01T00:09:45;6.55;;;3.08;;
80425;SDS011;69766;51.476;5.704;2023-08-01T00:12:11;8.07;;;3.70;;
80425;SDS011;69766;51.476;5.704;2023-08-01T00:14:37;7.93;;;3.92;;
80425;SDS011;69766;51.476;5.704;2023-08-01T00:17:02;7.50;;;4.47;;
80425;SDS011;69766;51.476;5.704;2023-08-01T00:19:28;7.65;;;4.20;;
80425;SDS011;69766;51.476;5.704;2023-08-01T00:21:54;7.65;;;4.20;;
80425;SDS011;69766;51.476;5.704;2023-08-01T00:24:20;8.98;;;4.15;;
80425;SDS011;69766;51.476;5.704;2023-08-01T00:26:45;8.15;;;4.72;;
80425;SDS011;69766;51.476;5.704;2023-08-01T00:29:12;9.60;;;5.05;;
80425;SDS011;69766;51.476;5.704;2023-08-01T00:31:38;9.60;;;5.50;;
80425;SDS011;69766;51.476;5.704;2023-08-01T00:34:04;12.20;;;6.13;;
80425;SDS011;69766;51.476;5.704;2023-08-01T00:36:29;15.35;;;6.38;;
80425;SDS011;69766;51.476;5.704;2023-08-01T00:38:55;12.88;;;6.75;;
80425;SDS011;69766;51.476;5.704;2023-08-01T00:41:21;15.85;;;7.93;;
80425;SDS011;69766;51.476;5.704;2023-08-01T00:43:46;14.60;;;7.82;;
80425;SDS011;69766;51.476;5.704;2023-08-01T00:46:12;14.38;;;8.75;;
80425;SDS011;69766;51.476;5.704;2023-08-01T00:48:38;15.10;;;8.70;;
80425;SDS011;69766;51.476;5.704;2023-08-01T00:51:04;19.23;;;9.95;;
80425;SDS011;69766;51.476;5.704;2023-08-01T00:53:31;17.08;;;9.35;;
80425;SDS011;69766;51.476;5.704;2023-08-01T00:55:58;20.38;;;11.55;;
80425;SDS011;69766;51.476;5.704;2023-08-01T00:58:24;25.55;;;13.10;;
80425;SDS011;69766;51.476;5.704;2023-08-01T01:00:50;23.85;;;13.48;;
80425;SDS011;69766;51.476;5.704;2023-08-01T01:03:16;22.55;;;12.52;;
80425;SDS011;69766;51.476;5.704;2023-08-01T01:08:30;34.60;;;15.50;;
80425;SDS011;69766;51.476;5.704;2023-08-01T01:10:55;29.17;;;15.93;;
80425;SDS011;69766;51.476;5.704;2023-08-01T01:13:21;26.00;;;15.30;;
80425;SDS011;69766;51.476;5.704;2023-08-01T01:15:47;30.98;;;17.23;;
80425;SDS011;69766;51.476;5.704;2023-08-01T01:18:13;25.77;;;15.63;;
80425;SDS011;69766;51.476;5.704;2023-08-01T01:20:38;31.02;;;17.50;;
80425;SDS011;69766;51.476;5.704;2023-08-01T02:35:45;31.80;;;16.30;;
80425;SDS011;69766;51.476;5.704;2023-08-01T02:38:12;44.53;;;18.23;;
80425;SDS011;69766;51.476;5.704;2023-08-01T02:40:37;40.95;;;18.13;;
80425;SDS011;69766;51.476;5.704;2023-08-01T02:43:03;37.50;;;16.08;;
80425;SDS011;69766;51.476;5.704;2023-08-01T02:45:29;44.85;;;18.02;;
80425;SDS011;69766;51.476;5.704;2023-08-01T02:47:54;37.78;;;17.15;;
80425;SDS011;69766;51.476;5.704;2023-08-01T02:50:20;33.50;;;16.40;;
80425;SDS011;69766;51.476;5.704;2023-08-01T02:52:46;45.47;;;17.73;;
80425;SDS011;69766;51.476;5.704;2023-08-01T02:55:11;43.33;;;17.52;;
80425;SDS011;69766;51.476;5.704;2023-08-01T02:57:37;42.47;;;17.08;;
80425;SDS011;69766;51.476;5.704;2023-08-01T03:00:03;42.30;;;19.02;;
80425;SDS011;69766;51.476;5.704;2023-08-01T03:02:31;47.58;;;18.75;;
80425;SDS011;69766;51.476;5.704;2023-08-01T03:04:57;50.25;;;18.77;;
80425;SDS011;69766;51.476;5.704;2023-08-01T03:07:22;40.40;;;17.35;;
80425;SDS011;69766;51.476;5.704;2023-08-01T03:09:48;43.25;;;18.27;;
80425;SDS011;69766;51.476;5.704;2023-08-01T03:12:14;48.33;;;19.45;;
80425;SDS011;69766;51.476;5.704;2023-08-01T03:14:39;38.22;;;18.65;;
80425;SDS011;69766;51.476;5.704;2023-08-01T03:17:08;41.28;;;19.65;;
80425;SDS011;69766;51.476;5.704;2023-08-01T03:19:34;46.40;;;19.52;;
80425;SDS011;69766;51.476;5.704;2023-08-01T03:21:59;44.25;;;20.05;;
80425;SDS011;69766;51.476;5.704;2023-08-01T03:24:25;45.25;;;19.02;;
80425;SDS011;69766;51.476;5.704;2023-08-01T03:26:51;48.50;;;20.23;;
80425;SDS011;69766;51.476;5.704;2023-08-01T03:29:17;46.30;;;20.88;;
80425;SDS011;69766;51.476;5.704;2023-08-01T03:31:42;49.63;;;22.02;;
80425;SDS011;69766;51.476;5.704;2023-08-01T03:34:08;50.38;;;22.38;;
80425;SDS011;69766;51.476;5.704;2023-08-01T03:36:34;50.15;;;22.60;;
80425;SDS011;69766;51.476;5.704;2023-08-01T03:39:00;49.30;;;21.92;;
80425;SDS011;69766;51.476;5.704;2023-08-01T03:41:26;46.58;;;22.33;;
80425;SDS011;69766;51.476;5.704;2023-08-01T03:43:51;54.28;;;24.23;;
80425;SDS011;69766;51.476;5.704;2023-08-01T03:46:17;52.67;;;24.65;;
80425;SDS011;69766;51.476;5.704;2023-08-01T03:48:42;53.65;;;23.45;;
80425;SDS011;69766;51.476;5.704;2023-08-01T03:51:08;54.22;;;25.85;;
80425;SDS011;69766;51.476;5.704;2023-08-01T03:53:34;62.45;;;25.85;;
80425;SDS011;69766;51.476;5.704;2023-08-01T03:55:59;56.28;;;25.90;;
80425;SDS011;69766;51.476;5.704;2023-08-01T03:58:25;59.58;;;26.85;;
80425;SDS011;69766;51.476;5.704;2023-08-01T04:00:51;59.10;;;27.25;;
80425;SDS011;69766;51.476;5.704;2023-08-01T04:03:16;54.75;;;26.25;;
80425;SDS011;69766;51.476;5.704;2023-08-01T04:05:42;56.65;;;27.27;;
80425;SDS011;69766;51.476;5.704;2023-08-01T04:08:08;63.08;;;27.52;;
80425;SDS011;69766;51.476;5.704;2023-08-01T04:10:33;54.38;;;27.40;;
80425;SDS011;69766;51.476;5.704;2023-08-01T04:12:59;62.80;;;28.75;;
80425;SDS011;69766;51.476;5.704;2023-08-01T04:15:25;57.72;;;28.08;;
80425;SDS011;69766;51.476;5.704;2023-08-01T04:17:50;62.53;;;28.60;;
80425;SDS011;69766;51.476;5.704;2023-08-01T04:20:16;57.92;;;27.48;;
80425;SDS011;69766;51.476;5.704;2023-08-01T04:22:42;59.88;;;26.15;;
80425;SDS011;69766;51.476;5.704;2023-08-01T04:25:08;56.42;;;26.48;;
80425;SDS011;69766;51.476;5.704;2023-08-01T04:27:33;57.20;;;25.23;;
80425;SDS011;69766;51.476;5.704;2023-08-01T04:29:59;60.25;;;27.75;;
80425;SDS011;69766;51.476;5.704;2023-08-01T04:32:25;59.03;;;24.90;;
80425;SDS011;69766;51.476;5.704;2023-08-01T04:34:51;58.28;;;26.23;;
80425;SDS011;69766;51.476;5.704;2023-08-01T04:37:16;52.88;;;25.58;;
80425;SDS011;69766;51.476;5.704;2023-08-01T04:39:45;57.47;;;26.80;;
80425;SDS011;69766;51.476;5.704;2023-08-01T04:42:11;48.67;;;24.10;;
80425;SDS011;69766;51.476;5.704;2023-08-01T04:44:36;49.88;;;24.23;;
80425;SDS011;69766;51.476;5.704;2023-08-01T04:47:02;51.85;;;25.75;;
80425;SDS011;69766;51.476;5.704;2023-08-01T04:49:28;50.33;;;24.85;;
80425;SDS011;69766;51.476;5.704;2023-08-01T04:51:54;49.20;;;25.55;;
80425;SDS011;69766;51.476;5.704;2023-08-01T04:54:20;58.33;;;25.40;;
80425;SDS011;69766;51.476;5.704;2023-08-01T04:56:46;52.42;;;24.05;;
80425;SDS011;69766;51.476;5.704;2023-08-01T04:59:11;53.22;;;24.08;;
80425;SDS011;69766;51.476;5.704;2023-08-01T05:01:37;57.10;;;24.85;;
80425;SDS011;69766;51.476;5.704;2023-08-01T05:04:03;47.28;;;22.98;;
80425;SDS011;69766;51.476;5.704;2023-08-01T05:06:28;43.47;;;21.30;;
80425;SDS011;69766;51.476;5.704;2023-08-01T05:08:54;53.35;;;25.45;;
80425;SDS011;69766;51.476;5.704;2023-08-01T05:11:20;50.35;;;23.02;;
80425;SDS011;69766;51.476;5.704;2023-08-01T05:13:46;42.53;;;21.85;;
80425;SDS011;69766;51.476;5.704;2023-08-01T05:16:11;44.38;;;21.25;;
80425;SDS011;69766;51.476;5.704;2023-08-01T05:18:37;47.72;;;22.17;;
80425;SDS011;69766;51.476;5.704;2023-08-01T05:21:03;43.63;;;20.88;;
80425;SDS011;69766;51.476;5.704;2023-08-01T05:23:29;38.20;;;19.42;;
80425;SDS011;69766;51.476;5.704;2023-08-01T05:25:54;38.53;;;19.90;;
80425;SDS011;69766;51.476;5.704;2023-08-01T05:28:20;47.25;;;21.40;;
80425;SDS011;69766;51.476;5.704;2023-08-01T05:30:46;42.97;;;20.15;;
80425;SDS011;69766;51.476;5.704;2023-08-01T05:33:12;37.50;;;20.70;;
80425;SDS011;69766;51.476;5.704;2023-08-01T05:35:38;38.53;;;18.80;;
80425;SDS011;69766;51.476;5.704;2023-08-01T05:38:03;38.20;;;20.02;;
80425;SDS011;69766;51.476;5.704;2023-08-01T05:40:29;37.55;;;18.27;;
80425;SDS011;69766;51.476;5.704;2023-08-01T05:42:55;37.15;;;18.13;;
80425;SDS011;69766;51.476;5.704;2023-08-01T05:45:20;36.55;;;19.48;;
80425;SDS011;69766;51.476;5.704;2023-08-01T05:47:46;40.80;;;19.95;;
80425;SDS011;69766;51.476;5.704;2023-08-01T05:50:12;37.95;;;19.80;;
80425;SDS011;69766;51.476;5.704;2023-08-01T05:52:37;35.67;;;19.38;;
80425;SDS011;69766;51.476;5.704;2023-08-01T05:55:03;38.80;;;19.40;;
80425;SDS011;69766;51.476;5.704;2023-08-01T05:57:29;43.35;;;19.85;;
80425;SDS011;69766;51.476;5.704;2023-08-01T05:59:55;38.50;;;19.10;;
80425;SDS011;69766;51.476;5.704;2023-08-01T06:02:21;42.97;;;18.80;;
80425;SDS011;69766;51.476;5.704;2023-08-01T06:04:46;40.92;;;18.60;;
80425;SDS011;69766;51.476;5.704;2023-08-01T06:07:12;40.05;;;19.02;;
80425;SDS011;69766;51.476;5.704;2023-08-01T06:09:38;35.10;;;17.88;;
80425;SDS011;69766;51.476;5.704;2023-08-01T06:12:03;33.90;;;18.15;;
80425;SDS011;69766;51.476;5.704;2023-08-01T06:14:30;32.45;;;16.95;;
80425;SDS011;69766;51.476;5.704;2023-08-01T06:16:55;35.85;;;17.98;;
80425;SDS011;69766;51.476;5.704;2023-08-01T06:19:21;35.85;;;16.15;;
80425;SDS011;69766;51.476;5.704;2023-08-01T06:21:47;35.25;;;17.08;;
80425;SDS011;69766;51.476;5.704;2023-08-01T06:24:12;30.48;;;16.30;;
80425;SDS011;69766;51.476;5.704;2023-08-01T06:26:38;32.33;;;16.67;;
80425;SDS011;69766;51.476;5.704;2023-08-01T06:29:04;29.70;;;16.95;;
80425;SDS011;69766;51.476;5.704;2023-08-01T06:31:29;27.98;;;15.00;;
80425;SDS011;69766;51.476;5.704;2023-08-01T06:33:55;32.25;;;16.55;;
80425;SDS011;69766;51.476;5.704;2023-08-01T06:36:21;32.38;;;15.82;;
80425;SDS011;69766;51.476;5.704;2023-08-01T06:38:46;26.10;;;15.02;;
80425;SDS011;69766;51.476;5.704;2023-08-01T06:41:12;26.00;;;14.65;;
80425;SDS011;69766;51.476;5.704;2023-08-01T06:43:38;26.52;;;13.85;;
80425;SDS011;69766;51.476;5.704;2023-08-01T06:46:04;27.17;;;15.68;;
80425;SDS011;69766;51.476;5.704;2023-08-01T06:48:30;26.67;;;14.60;;
80425;SDS011;69766;51.476;5.704;2023-08-01T06:50:59;29.45;;;15.05;;
80425;SDS011;69766;51.476;5.704;2023-08-01T06:53:26;28.15;;;16.10;;
80425;SDS011;69766;51.476;5.704;2023-08-01T06:55:52;27.45;;;15.65;;
80425;SDS011;69766;51.476;5.704;2023-08-01T06:58:17;30.65;;;15.30;;
80425;SDS011;69766;51.476;5.704;2023-08-01T07:03:38;30.83;;;15.88;;
80425;SDS011;69766;51.476;5.704;2023-08-01T07:06:04;28.58;;;14.90;;
80425;SDS011;69766;51.476;5.704;2023-08-01T07:08:29;29.25;;;15.23;;
80425;SDS011;69766;51.476;5.704;2023-08-01T07:10:55;26.25;;;14.30;;
80425;SDS011;69766;51.476;5.704;2023-08-01T07:13:21;26.02;;;14.32;;
80425;SDS011;69766;51.476;5.704;2023-08-01T07:15:47;24.17;;;13.43;;
80425;SDS011;69766;51.476;5.704;2023-08-01T07:18:13;27.42;;;12.55;;
80425;SDS011;69766;51.476;5.704;2023-08-01T07:20:39;22.58;;;11.70;;
80425;SDS011;69766;51.476;5.704;2023-08-01T07:23:04;19.13;;;11.02;;
80425;SDS011;69766;51.476;5.704;2023-08-01T07:25:30;23.08;;;10.93;;
80425;SDS011;69766;51.476;5.704;2023-08-01T07:27:55;18.05;;;11.40;;
80425;SDS011;69766;51.476;5.704;2023-08-01T07:30:21;20.75;;;10.50;;
80425;SDS011;69766;51.476;5.704;2023-08-01T07:32:47;18.88;;;11.18;;
80425;SDS011;69766;51.476;5.704;2023-08-01T07:35:13;18.00;;;9.90;;
80425;SDS011;69766;51.476;5.704;2023-08-01T07:37:39;16.25;;;10.23;;
80425;SDS011;69766;51.476;5.704;2023-08-01T07:40:07;16.77;;;9.10;;
80425;SDS011;69766;51.476;5.704;2023-08-01T07:42:33;17.08;;;8.55;;
80425;SDS011;69766;51.476;5.704;2023-08-01T07:44:59;20.63;;;10.35;;
80425;SDS011;69766;51.476;5.704;2023-08-01T07:47:24;21.20;;;9.07;;
80425;SDS011;69766;51.476;5.704;2023-08-01T07:49:51;17.92;;;9.95;;
80425;SDS011;69766;51.476;5.704;2023-08-01T07:52:17;15.68;;;9.60;;
80425;SDS011;69766;51.476;5.704;2023-08-01T07:54:43;14.93;;;8.65;;
80425;SDS011;69766;51.476;5.704;2023-08-01T07:57:09;15.63;;;8.80;;
80425;SDS011;69766;51.476;5.704;2023-08-01T07:59:35;13.23;;;7.28;;
80425;SDS011;69766;51.476;5.704;2023-08-01T08:02:00;16.08;;;7.45;;
80425;SDS011;69766;51.476;5.704;2023-08-01T08:04:26;13.32;;;6.80;;
80425;SDS011;69766;51.476;5.704;2023-08-01T08:06:52;11.82;;;6.95;;
80425;SDS011;69766;51.476;5.704;2023-08-01T08:09:19;15.13;;;6.40;;
80425;SDS011;69766;51.476;5.704;2023-08-01T08:11:47;12.95;;;6.45;;
80425;SDS011;69766;51.476;5.704;2023-08-01T08:14:13;9.95;;;5.55;;
80425;SDS011;69766;51.476;5.704;2023-08-01T08:16:41;12.23;;;6.07;;
80425;SDS011;69766;51.476;5.704;2023-08-01T08:19:07;10.18;;;5.40;;
80425;SDS011;69766;51.476;5.704;2023-08-01T08:21:53;11.65;;;5.75;;
80425;SDS011;69766;51.476;5.704;2023-08-01T08:24:18;13.20;;;7.22;;
80425;SDS011;69766;51.476;5.704;2023-08-01T08:26:44;15.95;;;5.80;;
80425;SDS011;69766;51.476;5.704;2023-08-01T08:29:10;11.48;;;5.72;;
80425;SDS011;69766;51.476;5.704;2023-08-01T08:31:36;9.77;;;5.63;;
80425;SDS011;69766;51.476;5.704;2023-08-01T08:34:02;10.30;;;5.10;;
80425;SDS011;69766;51.476;5.704;2023-08-01T08:36:27;13.00;;;5.60;;
80425;SDS011;69766;51.476;5.704;2023-08-01T08:38:53;10.18;;;4.80;;
80425;SDS011;69766;51.476;5.704;2023-08-01T08:41:20;11.00;;;5.10;;
80425;SDS011;69766;51.476;5.704;2023-08-01T08:43:47;12.90;;;5.57;;
80425;SDS011;69766;51.476;5.704;2023-08-01T08:46:15;9.00;;;4.78;;
80425;SDS011;69766;51.476;5.704;2023-08-01T08:48:42;9.80;;;5.00;;
80425;SDS011;69766;51.476;5.704;2023-08-01T08:51:09;11.88;;;5.88;;
80425;SDS011;69766;51.476;5.704;2023-08-01T08:53:36;12.27;;;5.72;;
80425;SDS011;69766;51.476;5.704;2023-08-01T08:56:05;10.05;;;5.45;;
80425;SDS011;69766;51.476;5.704;2023-08-01T08:58:33;11.90;;;5.82;;
80425;SDS011;69766;51.476;5.704;2023-08-01T09:01:00;11.15;;;5.40;;
80425;SDS011;69766;51.476;5.704;2023-08-01T09:03:27;10.77;;;5.10;;
80425;SDS011;69766;51.476;5.704;2023-08-01T09:06:02;10.73;;;5.28;;
80425;SDS011;69766;51.476;5.704;2023-08-01T09:08:32;9.57;;;5.10;;
80425;SDS011;69766;51.476;5.704;2023-08-01T09:11:01;10.47;;;4.93;;
80425;SDS011;69766;51.476;5.704;2023-08-01T09:13:27;11.60;;;6.30;;
80425;SDS011;69766;51.476;5.704;2023-08-01T09:15:53;12.40;;;6.60;;
80425;SDS011;69766;51.476;5.704;2023-08-01T09:18:19;10.27;;;6.50;;
80425;SDS011;69766;51.476;5.704;2023-08-01T09:20:46;12.07;;;7.43;;
80425;SDS011;69766;51.476;5.704;2023-08-01T09:23:12;14.35;;;7.38;;
80425;SDS011;69766;51.476;5.704;2023-08-01T09:25:39;11.57;;;7.60;;
80425;SDS011;69766;51.476;5.704;2023-08-01T09:28:18;14.07;;;7.40;;
80425;SDS011;69766;51.476;5.704;2023-08-01T09:30:48;15.23;;;7.22;;
80425;SDS011;69766;51.476;5.704;2023-08-01T09:33:16;8.85;;;5.82;;
80425;SDS011;69766;51.476;5.704;2023-08-01T09:35:42;17.40;;;6.63;;
80425;SDS011;69766;51.476;5.704;2023-08-01T09:38:11;10.15;;;5.00;;
80425;SDS011;69766;51.476;5.704;2023-08-01T09:40:39;9.13;;;4.45;;
80425;SDS011;69766;51.476;5.704;2023-08-01T09:43:06;11.07;;;5.07;;
80425;SDS011;69766;51.476;5.704;2023-08-01T09:45:31;10.68;;;4.80;;
80425;SDS011;69766;51.476;5.704;2023-08-01T09:47:59;8.20;;;4.18;;
80425;SDS011;69766;51.476;5.704;2023-08-01T09:50:25;11.27;;;4.93;;
80425;SDS011;69766;51.476;5.704;2023-08-01T09:52:51;12.63;;;4.03;;
80425;SDS011;69766;51.476;5.704;2023-08-01T09:55:32;12.23;;;4.47;;
80425;SDS011;69766;51.476;5.704;2023-08-01T09:57:59;8.95;;;3.83;;
80425;SDS011;69766;51.476;5.704;2023-08-01T10:00:25;9.65;;;3.78;;
80425;SDS011;69766;51.476;5.704;2023-08-01T10:02:52;9.80;;;3.60;;
80425;SDS011;69766;51.476;5.704;2023-08-01T10:05:18;7.47;;;3.05;;
80425;SDS011;69766;51.476;5.704;2023-08-01T10:07:46;5.05;;;2.00;;
80425;SDS011;69766;51.476;5.704;2023-08-01T10:10:13;5.70;;;2.03;;
80425;SDS011;69766;51.476;5.704;2023-08-01T10:12:42;7.40;;;2.25;;
80425;SDS011;69766;51.476;5.704;2023-08-01T10:15:10;5.85;;;2.35;;
80425;SDS011;69766;51.476;5.704;2023-08-01T10:17:36;6.32;;;2.40;;
80425;SDS011;69766;51.476;5.704;2023-08-01T10:20:02;6.93;;;2.20;;
80425;SDS011;69766;51.476;5.704;2023-08-01T10:22:29;6.32;;;2.40;;
80425;SDS011;69766;51.476;5.704;2023-08-01T10:24:56;7.68;;;2.80;;
80425;SDS011;69766;51.476;5.704;2023-08-01T10:27:23;7.88;;;1.92;;
80425;SDS011;69766;51.476;5.704;2023-08-01T10:30:01;5.47;;;1.90;;
80425;SDS011;69766;51.476;5.704;2023-08-01T10:32:32;7.22;;;2.30;;
80425;SDS011;69766;51.476;5.704;2023-08-01T10:35:02;8.40;;;2.30;;
80425;SDS011;69766;51.476;5.704;2023-08-01T10:37:41;4.88;;;2.00;;
80425;SDS011;69766;51.476;5.704;2023-08-01T10:40:08;6.30;;;2.47;;
80425;SDS011;69766;51.476;5.704;2023-08-01T10:42:38;6.07;;;2.63;;
80425;SDS011;69766;51.476;5.704;2023-08-01T10:45:16;5.57;;;2.15;;
80425;SDS011;69766;51.476;5.704;2023-08-01T10:47:46;7.35;;;2.67;;
80425;SDS011;69766;51.476;5.704;2023-08-01T10:50:15;7.85;;;3.10;;
80425;SDS011;69766;51.476;5.704;2023-08-01T10:52:43;7.75;;;2.90;;
80425;SDS011;69766;51.476;5.704;2023-08-01T10:55:08;10.27;;;2.80;;
80425;SDS011;69766;51.476;5.704;2023-08-01T10:57:36;10.35;;;2.72;;
80425;SDS011;69766;51.476;5.704;2023-08-01T11:00:04;9.18;;;3.03;;
80425;SDS011;69766;51.476;5.704;2023-08-01T11:02:35;9.90;;;3.55;;
80425;SDS011;69766;51.476;5.704;2023-08-01T11:05:02;8.32;;;2.70;;
80425;SDS011;69766;51.476;5.704;2023-08-01T11:07:30;8.00;;;3.10;;
80425;SDS011;69766;51.476;5.704;2023-08-01T11:10:06;8.98;;;3.15;;
80425;SDS011;69766;51.476;5.704;2023-08-01T11:12:33;22.90;;;4.30;;
80425;SDS011;69766;51.476;5.704;2023-08-01T11:15:02;9.52;;;4.00;;
80425;SDS011;69766;51.476;5.704;2023-08-01T11:17:30;12.48;;;4.38;;
80425;SDS011;69766;51.476;5.704;2023-08-01T11:20:03;14.15;;;3.97;;
80425;SDS011;69766;51.476;5.704;2023-08-01T11:22:33;13.10;;;3.75;;
80425;SDS011;69766;51.476;5.704;2023-08-01T11:25:00;6.95;;;3.53;;
80425;SDS011;69766;51.476;5.704;2023-08-01T11:27:26;8.77;;;3.63;;
80425;SDS011;69766;51.476;5.704;2023-08-01T11:29:52;9.85;;;3.30;;
80425;SDS011;69766;51.476;5.704;2023-08-01T11:32:18;8.77;;;3.50;;
80425;SDS011;69766;51.476;5.704;2023-08-01T11:37:21;11.73;;;3.20;;
80425;SDS011;69766;51.476;5.704;2023-08-01T11:39:47;8.88;;;2.92;;
80425;SDS011;69766;51.476;5.704;2023-08-01T11:42:14;8.60;;;2.22;;
80425;SDS011;69766;51.476;5.704;2023-08-01T11:44:41;7.07;;;2.20;;
80425;SDS011;69766;51.476;5.704;2023-08-01T11:47:10;6.18;;;2.15;;
80425;SDS011;69766;51.476;5.704;2023-08-01T11:49:37;7.70;;;2.13;;
80425;SDS011;69766;51.476;5.704;2023-08-01T11:52:03;6.70;;;2.05;;
80425;SDS011;69766;51.476;5.704;2023-08-01T11:54:29;9.38;;;2.50;;
80425;SDS011;69766;51.476;5.704;2023-08-01T11:57:00;8.63;;;2.00;;
80425;SDS011;69766;51.476;5.704;2023-08-01T11:59:26;7.43;;;2.67;;
80425;SDS011;69766;51.476;5.704;2023-08-01T12:01:52;8.35;;;2.92;;
80425;SDS011;69766;51.476;5.704;2023-08-01T12:04:24;9.95;;;2.70;;
80425;SDS011;69766;51.476;5.704;2023-08-01T12:06:51;11.90;;;3.15;;
80425;SDS011;69766;51.476;5.704;2023-08-01T12:09:16;8.05;;;2.50;;
80425;SDS011;69766;51.476;5.704;2023-08-01T12:11:45;10.85;;;2.60;;
80425;SDS011;69766;51.476;5.704;2023-08-01T12:14:15;7.70;;;2.40;;
80425;SDS011;69766;51.476;5.704;2023-08-01T12:16:42;7.03;;;2.40;;
80425;SDS011;69766;51.476;5.704;2023-08-01T12:19:18;9.35;;;2.30;;
80425;SDS011;69766;51.476;5.704;2023-08-01T12:21:45;7.53;;;2.05;;
80425;SDS011;69766;51.476;5.704;2023-08-01T12:24:11;7.63;;;2.30;;
80425;SDS011;69766;51.476;5.704;2023-08-01T12:26:37;10.43;;;2.78;;
80425;SDS011;69766;51.476;5.704;2023-08-01T12:29:02;9.23;;;2.25;;
80425;SDS011;69766;51.476;5.704;2023-08-01T12:31:28;6.38;;;1.88;;
80425;SDS011;69766;51.476;5.704;2023-08-01T12:33:54;9.95;;;2.03;;
80425;SDS011;69766;51.476;5.704;2023-08-01T12:39:05;5.60;;;1.50;;
80425;SDS011;69766;51.476;5.704;2023-08-01T12:41:35;6.45;;;1.98;;
80425;SDS011;69766;51.476;5.704;2023-08-01T12:44:02;5.35;;;1.70;;
80425;SDS011;69766;51.476;5.704;2023-08-01T12:46:28;5.13;;;1.30;;
80425;SDS011;69766;51.476;5.704;2023-08-01T12:48:53;6.45;;;1.63;;
80425;SDS011;69766;51.476;5.704;2023-08-01T12:51:19;6.50;;;1.88;;
80425;SDS011;69766;51.476;5.704;2023-08-01T12:53:45;3.20;;;1.27;;
80425;SDS011;69766;51.476;5.704;2023-08-01T12:56:10;6.07;;;1.63;;
80425;SDS011;69766;51.476;5.704;2023-08-01T12:58:36;4.90;;;1.73;;
80425;SDS011;69766;51.476;5.704;2023-08-01T13:01:02;5.72;;;1.65;;
80425;SDS011;69766;51.476;5.704;2023-08-01T13:03:31;5.82;;;1.65;;
80425;SDS011;69766;51.476;5.704;2023-08-01T13:05:57;9.73;;;2.17;;
80425;SDS011;69766;51.476;5.704;2023-08-01T13:08:23;9.75;;;2.08;;
80425;SDS011;69766;51.476;5.704;2023-08-01T13:10:49;6.90;;;2.08;;
80425;SDS011;69766;51.476;5.704;2023-08-01T13:13:15;6.20;;;1.23;;
80425;SDS011;69766;51.476;5.704;2023-08-01T13:15:41;4.47;;;1.70;;
80425;SDS011;69766;51.476;5.704;2023-08-01T13:18:07;6.18;;;1.90;;
80425;SDS011;69766;51.476;5.704;2023-08-01T13:20:34;9.75;;;2.30;;
80425;SDS011;69766;51.476;5.704;2023-08-01T13:23:03;7.55;;;1.75;;
80425;SDS011;69766;51.476;5.704;2023-08-01T13:25:29;3.97;;;1.40;;
80425;SDS011;69766;51.476;5.704;2023-08-01T13:27:55;7.85;;;2.05;;
80425;SDS011;69766;51.476;5.704;2023-08-01T13:30:20;7.85;;;1.45;;
80425;SDS011;69766;51.476;5.704;2023-08-01T13:32:49;5.50;;;1.60;;
80425;SDS011;69766;51.476;5.704;2023-08-01T13:35:15;4.63;;;1.20;;
80425;SDS011;69766;51.476;5.704;2023-08-01T13:37:41;4.40;;;1.38;;
80425;SDS011;69766;51.476;5.704;2023-08-01T13:40:07;3.60;;;1.30;;
80425;SDS011;69766;51.476;5.704;2023-08-01T13:42:34;4.55;;;1.27;;
80425;SDS011;69766;51.476;5.704;2023-08-01T13:44:59;6.65;;;1.75;;
80425;SDS011;69766;51.476;5.704;2023-08-01T13:47:25;5.53;;;1.50;;
80425;SDS011;69766;51.476;5.704;2023-08-01T13:49:51;4.93;;;1.40;;
80425;SDS011;69766;51.476;5.704;2023-08-01T13:52:17;6.90;;;1.52;;
80425;SDS011;69766;51.476;5.704;2023-08-01T13:54:42;4.18;;;1.30;;
80425;SDS011;69766;51.476;5.704;2023-08-01T13:57:08;3.88;;;1.30;;
80425;SDS011;69766;51.476;5.704;2023-08-01T13:59:34;4.00;;;1.20;;
80425;SDS011;69766;51.476;5.704;2023-08-01T14:02:01;5.38;;;1.10;;
80425;SDS011;69766;51.476;5.704;2023-08-01T14:04:28;7.07;;;1.58;;
80425;SDS011;69766;51.476;5.704;2023-08-01T14:06:53;4.68;;;1.15;;
80425;SDS011;69766;51.476;5.704;2023-08-01T14:09:20;4.47;;;1.10;;
80425;SDS011;69766;51.476;5.704;2023-08-01T14:11:45;5.55;;;1.20;;
80425;SDS011;69766;51.476;5.704;2023-08-01T14:14:11;10.18;;;1.60;;
80425;SDS011;69766;51.476;5.704;2023-08-01T14:16:37;6.07;;;1.80;;
80425;SDS011;69766;51.476;5.704;2023-08-01T14:19:02;4.88;;;1.55;;
80425;SDS011;69766;51.476;5.704;2023-08-01T14:21:29;7.78;;;1.92;;
80425;SDS011;69766;51.476;5.704;2023-08-01T14:23:54;5.72;;;1.40;;
80425;SDS011;69766;51.476;5.704;2023-08-01T14:26:20;3.78;;;1.38;;
80425;SDS011;69766;51.476;5.704;2023-08-01T14:28:46;4.90;;;1.40;;
80425;SDS011;69766;51.476;5.704;2023-08-01T14:31:11;4.53;;;1.20;;
80425;SDS011;69766;51.476;5.704;2023-08-01T14:33:37;2.97;;;1.08;;
80425;SDS011;69766;51.476;5.704;2023-08-01T14:36:06;4.25;;;1.30;;
80425;SDS011;69766;51.476;5.704;2023-08-01T14:38:34;5.03;;;1.60;;
80425;SDS011;69766;51.476;5.704;2023-08-01T14:41:01;3.95;;;1.40;;
80425;SDS011;69766;51.476;5.704;2023-08-01T14:43:27;6.53;;;1.25;;
80425;SDS011;69766;51.476;5.704;2023-08-01T14:45:53;5.57;;;1.15;;
80425;SDS011;69766;51.476;5.704;2023-08-01T14:48:19;6.75;;;1.67;;
80425;SDS011;69766;51.476;5.704;2023-08-01T14:50:45;4.68;;;1.48;;
80425;SDS011;69766;51.476;5.704;2023-08-01T14:53:11;4.85;;;1.10;;
80425;SDS011;69766;51.476;5.704;2023-08-01T14:55:37;5.32;;;1.23;;
80425;SDS011;69766;51.476;5.704;2023-08-01T14:58:02;3.83;;;1.00;;
80425;SDS011;69766;51.476;5.704;2023-08-01T15:00:30;3.13;;;0.80;;
80425;SDS011;69766;51.476;5.704;2023-08-01T15:02:59;2.80;;;0.70;;
80425;SDS011;69766;51.476;5.704;2023-08-01T15:05:25;4.47;;;0.98;;
80425;SDS011;69766;51.476;5.704;2023-08-01T15:07:50;3.83;;;0.80;;
80425;SDS011;69766;51.476;5.704;2023-08-01T15:10:16;3.70;;;0.95;;
80425;SDS011;69766;51.476;5.704;2023-08-01T15:12:42;2.30;;;0.90;;
80425;SDS011;69766;51.476;5.704;2023-08-01T15:15:08;3.42;;;1.00;;
80425;SDS011;69766;51.476;5.704;2023-08-01T15:17:34;4.47;;;1.15;;
80425;SDS011;69766;51.476;5.704;2023-08-01T15:20:00;3.33;;;1.05;;
80425;SDS011;69766;51.476;5.704;2023-08-01T15:22:27;4.00;;;1.38;;
80425;SDS011;69766;51.476;5.704;2023-08-01T15:24:53;4.10;;;1.10;;
80425;SDS011;69766;51.476;5.704;2023-08-01T15:27:18;2.30;;;0.85;;
80425;SDS011;69766;51.476;5.704;2023-08-01T15:29:45;3.50;;;0.95;;
80425;SDS011;69766;51.476;5.704;2023-08-01T15:32:11;4.18;;;0.90;;
80425;SDS011;69766;51.476;5.704;2023-08-01T15:34:37;3.58;;;1.05;;
80425;SDS011;69766;51.476;5.704;2023-08-01T15:37:03;3.28;;;1.50;;
80425;SDS011;69766;51.476;5.704;2023-08-01T15:39:33;3.05;;;1.05;;
80425;SDS011;69766;51.476;5.704;2023-08-01T15:41:59;2.80;;;0.98;;
80425;SDS011;69766;51.476;5.704;2023-08-01T15:44:24;7.47;;;1.20;;
80425;SDS011;69766;51.476;5.704;2023-08-01T15:46:50;4.88;;;1.00;;
80425;SDS011;69766;51.476;5.704;2023-08-01T15:49:16;2.80;;;0.90;;
80425;SDS011;69766;51.476;5.704;2023-08-01T15:51:42;4.00;;;0.90;;
80425;SDS011;69766;51.476;5.704;2023-08-01T15:54:08;3.15;;;1.13;;